createdAt,value
2023-05-18T00:00:01.722Z,65.40
2023-05-18T00:00:11.164Z,65.30
2023-05-18T00:00:20.543Z,65.30
2023-05-18T00:00:29.948Z,65.30
2023-05-18T00:00:39.355Z,65.20
2023-05-18T00:00:48.745Z,65.20
2023-05-18T00:01:07.558Z,65.20
2023-05-18T00:01:16.939Z,65.20
2023-05-18T00:01:26.336Z,65.20
2023-05-18T00:01:35.719Z,65.20
2023-05-18T00:01:45.107Z,65.10
2023-05-18T00:01:54.481Z,65.10
2023-05-18T00:02:13.329Z,65.10
2023-05-18T00:02:22.716Z,65.20
2023-05-18T00:02:32.155Z,65.10
2023-05-18T00:02:41.619Z,65.20
2023-05-18T00:02:51.033Z,65.10
2023-05-18T00:03:00.421Z,65.20
2023-05-18T00:03:19.259Z,65.20
2023-05-18T00:03:28.714Z,65.20
2023-05-18T00:03:38.096Z,65.20
2023-05-18T00:03:47.612Z,65.20
2023-05-18T00:03:56.838Z,65.20
2023-05-18T00:04:06.224Z,65.20
2023-05-18T00:04:24.953Z,65.20
2023-05-18T00:04:34.398Z,65.20
2023-05-18T00:04:43.855Z,65.20
2023-05-18T00:04:53.319Z,65.20
2023-05-18T00:05:02.544Z,65.10
2023-05-18T00:05:11.945Z,65.10
2023-05-18T00:05:30.925Z,65.10
2023-05-18T00:05:40.105Z,65.10
2023-05-18T00:05:49.595Z,65.10
2023-05-18T00:05:58.981Z,65.10
2023-05-18T00:06:08.373Z,65.10
2023-05-18T00:06:17.774Z,65.10
2023-05-18T00:06:36.589Z,65.00
2023-05-18T00:06:45.965Z,65.00
2023-05-18T00:06:55.341Z,65.00
2023-05-18T00:07:04.776Z,65.00
2023-05-18T00:07:14.180Z,65.00
2023-05-18T00:07:23.588Z,64.90
2023-05-18T00:07:42.690Z,65.00
2023-05-18T00:07:51.808Z,64.80
2023-05-18T00:08:01.203Z,64.80
2023-05-18T00:08:10.646Z,64.80
2023-05-18T00:08:20.014Z,64.80
2023-05-18T00:08:29.399Z,64.80
2023-05-18T00:08:48.200Z,64.80
2023-05-18T00:08:57.599Z,64.80
2023-05-18T00:09:07.009Z,64.80
2023-05-18T00:09:16.409Z,64.80
2023-05-18T00:09:25.787Z,64.90
2023-05-18T00:09:35.181Z,64.90
2023-05-18T00:09:54.044Z,64.90
2023-05-18T00:10:03.506Z,64.90
2023-05-18T00:10:12.899Z,64.90
2023-05-18T00:10:22.306Z,64.90
2023-05-18T00:10:31.748Z,64.90
2023-05-18T00:10:41.054Z,64.90
2023-05-18T00:10:59.816Z,64.90
2023-05-18T00:11:09.213Z,64.90
2023-05-18T00:11:18.588Z,64.90
2023-05-18T00:11:27.959Z,64.90
2023-05-18T00:11:37.353Z,64.90
2023-05-18T00:11:46.747Z,64.90
2023-05-18T00:12:05.601Z,64.90
2023-05-18T00:12:14.997Z,64.90
2023-05-18T00:12:24.394Z,64.90
2023-05-18T00:12:33.784Z,64.80
2023-05-18T00:12:43.247Z,64.80
2023-05-18T00:12:52.650Z,64.80
2023-05-18T00:13:11.468Z,64.80
2023-05-18T00:13:20.852Z,64.80
2023-05-18T00:13:30.242Z,64.80
2023-05-18T00:13:39.637Z,64.80
2023-05-18T00:13:49.006Z,64.80
2023-05-18T00:13:58.395Z,64.80
2023-05-18T00:14:17.180Z,64.80
2023-05-18T00:14:26.601Z,64.80
2023-05-18T00:14:35.976Z,64.80
2023-05-18T00:14:45.354Z,64.80
2023-05-18T00:14:54.737Z,64.80
2023-05-18T00:15:04.125Z,64.80
2023-05-18T00:15:22.903Z,64.80
2023-05-18T00:15:32.569Z,64.80
2023-05-18T00:15:41.725Z,64.80
2023-05-18T00:15:51.168Z,64.80
2023-05-18T00:16:00.674Z,64.80
2023-05-18T00:16:09.942Z,64.80
2023-05-18T00:16:28.736Z,64.70
2023-05-18T00:16:38.203Z,64.70
2023-05-18T00:16:47.813Z,64.70
2023-05-18T00:16:56.908Z,64.70
2023-05-18T00:17:06.332Z,64.70
2023-05-18T00:17:15.700Z,64.70
2023-05-18T00:17:34.521Z,64.70
2023-05-18T00:17:43.910Z,64.70
2023-05-18T00:17:53.431Z,64.70
2023-05-18T00:18:02.701Z,64.70
2023-05-18T00:18:12.098Z,64.70
2023-05-18T00:18:21.528Z,64.70
2023-05-18T00:18:40.362Z,64.70
2023-05-18T00:18:49.834Z,64.60
2023-05-18T00:18:59.269Z,64.70
2023-05-18T00:19:08.718Z,64.70
2023-05-18T00:19:18.081Z,64.70
2023-05-18T00:19:27.484Z,64.70
2023-05-18T00:19:46.202Z,64.70
2023-05-18T00:19:55.605Z,64.70
2023-05-18T00:20:05.016Z,64.70
2023-05-18T00:20:14.394Z,64.70
2023-05-18T00:20:23.770Z,64.70
2023-05-18T00:20:33.150Z,64.70
2023-05-18T00:20:51.953Z,64.60
2023-05-18T00:21:01.383Z,64.60
2023-05-18T00:21:10.816Z,64.50
2023-05-18T00:21:20.166Z,64.50
2023-05-18T00:21:29.550Z,64.50
2023-05-18T00:21:38.951Z,64.60
2023-05-18T00:21:57.755Z,64.50
2023-05-18T00:22:07.172Z,64.50
2023-05-18T00:22:16.564Z,64.50
2023-05-18T00:22:25.964Z,64.50
2023-05-18T00:22:35.369Z,64.60
2023-05-18T00:22:44.746Z,64.60
2023-05-18T00:23:03.559Z,64.60
2023-05-18T00:23:13.005Z,64.60
2023-05-18T00:23:22.378Z,64.60
2023-05-18T00:23:31.767Z,64.70
2023-05-18T00:23:41.162Z,64.70
2023-05-18T00:23:50.576Z,64.60
2023-05-18T00:24:09.442Z,64.70
2023-05-18T00:24:18.827Z,64.70
2023-05-18T00:24:28.230Z,64.70
2023-05-18T00:24:37.624Z,64.70
2023-05-18T00:24:47.019Z,64.70
2023-05-18T00:24:56.403Z,64.70
2023-05-18T00:25:15.187Z,64.80
2023-05-18T00:25:24.606Z,64.70
2023-05-18T00:25:33.985Z,64.70
2023-05-18T00:25:43.379Z,64.80
2023-05-18T00:25:52.752Z,64.70
2023-05-18T00:26:02.131Z,64.80
2023-05-18T00:26:20.912Z,64.70
2023-05-18T00:26:30.291Z,64.80
2023-05-18T00:26:39.676Z,64.70
2023-05-18T00:26:49.050Z,64.70
2023-05-18T00:26:58.465Z,64.80
2023-05-18T00:27:07.921Z,64.70
2023-05-18T00:27:26.668Z,64.70
2023-05-18T00:27:36.069Z,64.70
2023-05-18T00:27:45.466Z,64.60
2023-05-18T00:27:54.866Z,64.70
2023-05-18T00:28:04.285Z,64.70
2023-05-18T00:28:13.665Z,64.70
2023-05-18T00:28:32.454Z,64.70
2023-05-18T00:28:41.850Z,64.70
2023-05-18T00:28:51.270Z,64.70
2023-05-18T00:29:00.655Z,64.70
2023-05-18T00:29:10.049Z,64.70
2023-05-18T00:29:19.451Z,64.80
2023-05-18T00:29:38.247Z,64.80
2023-05-18T00:29:47.641Z,64.80
2023-05-18T00:29:57.010Z,64.80
2023-05-18T00:30:06.412Z,64.80
2023-05-18T00:30:15.807Z,64.80
2023-05-18T00:30:25.199Z,64.80
2023-05-18T00:30:44.007Z,64.80
2023-05-18T00:30:53.429Z,64.80
2023-05-18T00:31:02.831Z,64.80
2023-05-18T00:31:12.242Z,64.70
2023-05-18T00:31:21.710Z,64.70
2023-05-18T00:31:31.045Z,64.80
2023-05-18T00:31:49.955Z,64.80
2023-05-18T00:31:59.371Z,64.80
2023-05-18T00:32:08.780Z,64.80
2023-05-18T00:32:18.150Z,64.80
2023-05-18T00:32:27.619Z,64.80
2023-05-18T00:32:36.968Z,64.80
2023-05-18T00:32:55.796Z,64.80
2023-05-18T00:33:05.184Z,64.80
2023-05-18T00:33:14.505Z,64.80
2023-05-18T00:33:23.955Z,64.90
2023-05-18T00:33:33.335Z,64.90
2023-05-18T00:33:42.736Z,64.90
2023-05-18T00:34:01.510Z,65.00
2023-05-18T00:34:10.869Z,65.00
2023-05-18T00:34:23.353Z,65.00
2023-05-18T00:34:30.188Z,65.00
2023-05-18T00:34:39.597Z,65.00
2023-05-18T00:34:49.009Z,65.00
2023-05-18T00:35:07.835Z,65.10
2023-05-18T00:35:17.209Z,65.10
2023-05-18T00:35:26.605Z,65.10
2023-05-18T00:35:35.991Z,65.10
2023-05-18T00:35:45.405Z,65.10
2023-05-18T00:35:54.790Z,65.10
2023-05-18T00:36:13.577Z,65.10
2023-05-18T00:36:22.986Z,63.50
2023-05-18T00:36:32.396Z,65.10
2023-05-18T00:36:41.806Z,65.10
2023-05-18T00:36:51.178Z,65.10
2023-05-18T00:37:00.582Z,65.10
2023-05-18T00:37:19.531Z,65.10
2023-05-18T00:37:28.974Z,65.10
2023-05-18T00:37:38.415Z,65.20
2023-05-18T00:37:47.937Z,65.20
2023-05-18T00:37:57.232Z,65.20
2023-05-18T00:38:06.612Z,65.30
2023-05-18T00:38:25.471Z,65.40
2023-05-18T00:38:34.858Z,65.50
2023-05-18T00:38:44.260Z,65.60
2023-05-18T00:38:56.404Z,65.60
2023-05-18T00:39:03.651Z,65.70
2023-05-18T00:39:13.032Z,65.80
2023-05-18T00:39:31.829Z,65.90
2023-05-18T00:39:41.238Z,66.10
2023-05-18T00:39:50.677Z,66.20
2023-05-18T00:40:00.171Z,66.30
2023-05-18T00:40:09.533Z,66.30
2023-05-18T00:40:18.984Z,66.50
2023-05-18T00:40:37.794Z,66.70
2023-05-18T00:40:47.212Z,66.80
2023-05-18T00:40:56.619Z,67.00
2023-05-18T00:41:06.024Z,67.00
2023-05-18T00:41:15.411Z,67.20
2023-05-18T00:41:24.821Z,67.30
2023-05-18T00:41:43.617Z,67.50
2023-05-18T00:41:53.023Z,66.00
2023-05-18T00:42:02.442Z,67.70
2023-05-18T00:42:11.900Z,67.80
2023-05-18T00:42:21.317Z,67.90
2023-05-18T00:42:30.708Z,68.10
2023-05-18T00:42:49.521Z,68.20
2023-05-18T00:42:58.911Z,68.40
2023-05-18T00:43:08.328Z,68.50
2023-05-18T00:43:17.735Z,68.60
2023-05-18T00:43:27.153Z,68.70
2023-05-18T00:43:36.536Z,68.80
2023-05-18T00:43:55.357Z,69.00
2023-05-18T00:44:04.834Z,69.10
2023-05-18T00:44:14.186Z,69.20
2023-05-18T00:44:23.591Z,69.30
2023-05-18T00:44:33.001Z,69.50
2023-05-18T00:44:42.418Z,69.50
2023-05-18T00:45:01.216Z,69.70
2023-05-18T00:45:10.601Z,69.80
2023-05-18T00:45:20.005Z,69.80
2023-05-18T00:45:29.540Z,70.00
2023-05-18T00:45:38.911Z,70.20
2023-05-18T00:45:48.270Z,70.20
2023-05-18T00:46:07.124Z,70.40
2023-05-18T00:46:16.466Z,70.50
2023-05-18T00:46:25.872Z,70.60
2023-05-18T00:46:35.359Z,70.70
2023-05-18T00:46:44.686Z,70.70
2023-05-18T00:46:54.093Z,70.80
2023-05-18T00:47:12.903Z,71.00
2023-05-18T00:47:22.314Z,70.90
2023-05-18T00:47:31.706Z,71.00
2023-05-18T00:47:41.173Z,71.00
2023-05-18T00:47:50.536Z,71.10
2023-05-18T00:47:59.931Z,71.10
2023-05-18T00:48:18.740Z,71.20
2023-05-18T00:48:28.085Z,71.10
2023-05-18T00:48:37.608Z,71.10
2023-05-18T00:48:47.015Z,71.10
2023-05-18T00:48:56.410Z,71.00
2023-05-18T00:49:05.800Z,70.90
2023-05-18T00:49:24.624Z,70.90
2023-05-18T00:49:34.006Z,70.90
2023-05-18T00:49:43.421Z,70.90
2023-05-18T00:49:52.809Z,70.80
2023-05-18T00:50:02.185Z,70.70
2023-05-18T00:50:11.631Z,70.70
2023-05-18T00:50:30.414Z,70.50
2023-05-18T00:50:39.815Z,70.40
2023-05-18T00:50:49.224Z,70.40
2023-05-18T00:50:58.641Z,70.30
2023-05-18T00:51:08.039Z,70.30
2023-05-18T00:51:17.449Z,70.20
2023-05-18T00:51:36.244Z,70.10
2023-05-18T00:51:45.660Z,69.90
2023-05-18T00:51:55.086Z,69.90
2023-05-18T00:52:04.489Z,69.80
2023-05-18T00:52:13.923Z,69.70
2023-05-18T00:52:23.339Z,69.50
2023-05-18T00:52:42.169Z,67.80
2023-05-18T00:52:51.578Z,69.50
2023-05-18T00:53:00.985Z,69.40
2023-05-18T00:53:10.408Z,69.40
2023-05-18T00:53:19.895Z,69.40
2023-05-18T00:53:29.256Z,69.40
2023-05-18T00:53:48.051Z,69.40
2023-05-18T00:53:57.502Z,69.40
2023-05-18T00:54:06.855Z,69.40
2023-05-18T00:54:16.285Z,69.50
2023-05-18T00:54:25.699Z,69.40
2023-05-18T00:54:35.127Z,69.50
2023-05-18T00:54:53.953Z,69.50
2023-05-18T00:55:03.391Z,69.70
2023-05-18T00:55:12.815Z,69.60
2023-05-18T00:55:22.210Z,69.60
2023-05-18T00:55:32.001Z,69.70
2023-05-18T00:55:41.076Z,69.70
2023-05-18T00:55:59.861Z,69.80
2023-05-18T00:56:09.256Z,69.90
2023-05-18T00:56:18.651Z,70.00
2023-05-18T00:56:28.048Z,70.00
2023-05-18T00:56:37.449Z,70.10
2023-05-18T00:56:46.867Z,70.10
2023-05-18T00:57:05.662Z,70.20
2023-05-18T00:57:15.116Z,70.30
2023-05-18T00:57:24.509Z,70.30
2023-05-18T00:57:33.913Z,70.30
2023-05-18T00:57:43.327Z,70.40
2023-05-18T00:57:52.720Z,70.40
2023-05-18T00:58:11.546Z,70.50
2023-05-18T00:58:20.941Z,70.60
2023-05-18T00:58:30.333Z,70.60
2023-05-18T00:58:39.729Z,70.70
2023-05-18T00:58:49.102Z,70.80
2023-05-18T00:58:58.555Z,70.80
2023-05-18T00:59:17.363Z,70.90
2023-05-18T00:59:26.767Z,71.00
2023-05-18T00:59:36.183Z,71.00
2023-05-18T00:59:45.577Z,71.10
2023-05-18T00:59:54.990Z,71.00
2023-05-18T01:00:04.403Z,71.10
2023-05-18T01:00:23.211Z,71.20
2023-05-18T01:00:32.630Z,71.30
2023-05-18T01:00:42.011Z,71.40
2023-05-18T01:00:51.474Z,71.50
2023-05-18T01:01:00.900Z,71.50
2023-05-18T01:01:10.325Z,71.60
2023-05-18T01:01:29.262Z,71.70
2023-05-18T01:01:38.607Z,71.80
2023-05-18T01:01:47.901Z,71.80
2023-05-18T01:01:57.327Z,71.90
2023-05-18T01:02:06.759Z,71.80
2023-05-18T01:02:16.189Z,72.00
2023-05-18T01:02:35.021Z,72.00
2023-05-18T01:02:44.460Z,72.10
2023-05-18T01:02:53.860Z,72.10
2023-05-18T01:03:03.314Z,72.20
2023-05-18T01:03:12.601Z,72.30
2023-05-18T01:03:21.991Z,72.30
2023-05-18T01:03:40.942Z,72.40
2023-05-18T01:03:50.334Z,72.50
2023-05-18T01:03:59.743Z,72.50
2023-05-18T01:04:09.144Z,72.60
2023-05-18T01:04:18.564Z,72.60
2023-05-18T01:04:27.985Z,72.60
2023-05-18T01:04:46.749Z,72.70
2023-05-18T01:04:56.144Z,72.70
2023-05-18T01:05:05.533Z,72.90
2023-05-18T01:05:15.014Z,72.90
2023-05-18T01:05:24.421Z,72.90
2023-05-18T01:05:33.838Z,73.00
2023-05-18T01:05:52.698Z,73.10
2023-05-18T01:06:02.165Z,73.20
2023-05-18T01:06:11.614Z,73.30
2023-05-18T01:06:21.039Z,73.30
2023-05-18T01:06:30.431Z,73.30
2023-05-18T01:06:39.834Z,73.40
2023-05-18T01:06:58.660Z,73.50
2023-05-18T01:07:08.078Z,73.50
2023-05-18T01:07:17.497Z,73.60
2023-05-18T01:07:26.950Z,73.70
2023-05-18T01:07:36.331Z,73.70
2023-05-18T01:07:45.734Z,73.70
2023-05-18T01:08:04.554Z,73.90
2023-05-18T01:08:13.974Z,73.80
2023-05-18T01:08:23.486Z,73.90
2023-05-18T01:08:32.780Z,73.90
2023-05-18T01:08:42.176Z,73.80
2023-05-18T01:08:51.580Z,73.90
2023-05-18T01:09:10.393Z,73.90
2023-05-18T01:09:19.797Z,74.00
2023-05-18T01:09:29.200Z,74.00
2023-05-18T01:09:38.668Z,74.00
2023-05-18T01:09:48.097Z,73.90
2023-05-18T01:09:57.432Z,74.00
2023-05-18T01:10:16.244Z,74.00
2023-05-18T01:10:25.671Z,74.10
2023-05-18T01:10:35.091Z,74.10
2023-05-18T01:10:44.484Z,74.10
2023-05-18T01:10:53.959Z,74.00
2023-05-18T01:11:03.401Z,74.10
2023-05-18T01:11:22.271Z,74.10
2023-05-18T01:11:31.657Z,74.10
2023-05-18T01:11:41.250Z,74.20
2023-05-18T01:11:50.436Z,74.20
2023-05-18T01:11:59.835Z,74.20
2023-05-18T01:12:09.229Z,74.20
2023-05-18T01:12:28.143Z,74.20
2023-05-18T01:12:37.544Z,74.20
2023-05-18T01:12:46.953Z,74.30
2023-05-18T01:12:56.377Z,74.30
2023-05-18T01:13:05.761Z,74.40
2023-05-18T01:13:15.145Z,74.30
2023-05-18T01:13:33.941Z,74.40
2023-05-18T01:13:43.352Z,74.40
2023-05-18T01:13:52.751Z,74.30
2023-05-18T01:14:02.206Z,74.40
2023-05-18T01:14:11.662Z,72.80
2023-05-18T01:14:21.047Z,74.30
2023-05-18T01:14:39.833Z,74.50
2023-05-18T01:14:49.228Z,74.50
2023-05-18T01:14:58.610Z,74.50
2023-05-18T01:15:08.009Z,74.50
2023-05-18T01:15:17.417Z,74.50
2023-05-18T01:15:26.805Z,74.50
2023-05-18T01:15:45.628Z,74.60
2023-05-18T01:15:55.064Z,74.40
2023-05-18T01:16:04.513Z,74.50
2023-05-18T01:16:13.917Z,74.50
2023-05-18T01:16:23.347Z,74.40
2023-05-18T01:16:32.721Z,74.40
2023-05-18T01:16:51.486Z,74.20
2023-05-18T01:17:00.850Z,74.20
2023-05-18T01:17:10.440Z,74.10
2023-05-18T01:17:19.698Z,74.00
2023-05-18T01:17:29.120Z,73.90
2023-05-18T01:17:38.507Z,73.80
2023-05-18T01:17:57.320Z,73.70
2023-05-18T01:18:06.726Z,73.60
2023-05-18T01:18:16.068Z,73.50
2023-05-18T01:18:25.465Z,73.40
2023-05-18T01:18:34.953Z,73.30
2023-05-18T01:18:44.538Z,73.20
2023-05-18T01:19:03.354Z,72.90
2023-05-18T01:19:12.836Z,72.70
2023-05-18T01:19:22.147Z,72.60
2023-05-18T01:19:31.577Z,72.40
2023-05-18T01:19:40.972Z,72.30
2023-05-18T01:19:50.383Z,72.20
2023-05-18T01:20:09.217Z,72.00
2023-05-18T01:20:18.602Z,71.90
2023-05-18T01:20:28.020Z,71.70
2023-05-18T01:20:37.384Z,71.60
2023-05-18T01:20:46.806Z,71.60
2023-05-18T01:20:56.172Z,71.40
2023-05-18T01:21:14.950Z,71.20
2023-05-18T01:21:24.354Z,71.20
2023-05-18T01:21:33.770Z,71.10
2023-05-18T01:21:43.205Z,71.00
2023-05-18T01:21:52.593Z,70.80
2023-05-18T01:22:01.995Z,70.80
2023-05-18T01:22:20.860Z,70.60
2023-05-18T01:22:30.249Z,70.50
2023-05-18T01:22:39.654Z,70.50
2023-05-18T01:22:49.051Z,70.30
2023-05-18T01:22:58.477Z,70.20
2023-05-18T01:23:07.873Z,70.20
2023-05-18T01:23:26.741Z,70.10
2023-05-18T01:23:36.110Z,70.10
2023-05-18T01:23:45.560Z,70.10
2023-05-18T01:23:55.012Z,70.10
2023-05-18T01:24:04.365Z,70.10
2023-05-18T01:24:13.795Z,70.10
2023-05-18T01:24:32.615Z,70.10
2023-05-18T01:24:42.024Z,70.10
2023-05-18T01:24:51.461Z,70.10
2023-05-18T01:25:00.883Z,70.10
2023-05-18T01:25:10.310Z,70.20
2023-05-18T01:25:19.742Z,70.20
2023-05-18T01:25:38.512Z,70.30
2023-05-18T01:25:47.905Z,70.30
2023-05-18T01:25:57.312Z,70.30
2023-05-18T01:26:06.726Z,70.40
2023-05-18T01:26:16.116Z,70.50
2023-05-18T01:26:25.587Z,70.50
2023-05-18T01:26:44.386Z,70.60
2023-05-18T01:26:53.801Z,70.80
2023-05-18T01:27:03.212Z,70.80
2023-05-18T01:27:12.624Z,70.90
2023-05-18T01:27:22.068Z,71.00
2023-05-18T01:27:31.450Z,71.00
2023-05-18T01:27:50.242Z,69.40
2023-05-18T01:27:59.627Z,71.20
2023-05-18T01:28:09.031Z,71.30
2023-05-18T01:28:18.423Z,71.40
2023-05-18T01:28:27.823Z,71.40
2023-05-18T01:28:37.211Z,71.40
2023-05-18T01:28:56.009Z,71.60
2023-05-18T01:29:05.432Z,71.60
2023-05-18T01:29:14.804Z,71.70
2023-05-18T01:29:24.191Z,71.80
2023-05-18T01:29:33.577Z,72.00
2023-05-18T01:29:42.979Z,72.10
2023-05-18T01:30:01.791Z,72.00
2023-05-18T01:30:11.173Z,72.10
2023-05-18T01:30:20.589Z,72.10
2023-05-18T01:30:29.937Z,72.20
2023-05-18T01:30:39.350Z,72.20
2023-05-18T01:30:48.730Z,72.20
2023-05-18T01:31:07.577Z,72.10
2023-05-18T01:31:16.928Z,72.10
2023-05-18T01:31:26.323Z,72.10
2023-05-18T01:31:35.744Z,72.00
2023-05-18T01:31:45.109Z,72.00
2023-05-18T01:31:54.497Z,72.00
2023-05-18T01:32:13.314Z,71.80
2023-05-18T01:32:22.754Z,71.80
2023-05-18T01:32:32.235Z,71.70
2023-05-18T01:32:41.605Z,71.70
2023-05-18T01:32:51.014Z,71.60
2023-05-18T01:33:00.383Z,71.60
2023-05-18T01:33:19.149Z,71.40
2023-05-18T01:33:28.541Z,71.30
2023-05-18T01:33:37.965Z,71.20
2023-05-18T01:33:47.360Z,71.10
2023-05-18T01:33:56.751Z,71.10
2023-05-18T01:34:06.135Z,71.00
2023-05-18T01:34:24.961Z,70.80
2023-05-18T01:34:34.347Z,70.80
2023-05-18T01:34:43.726Z,70.60
2023-05-18T01:34:53.117Z,70.60
2023-05-18T01:35:02.510Z,70.60
2023-05-18T01:35:12.017Z,70.50
2023-05-18T01:35:30.990Z,70.30
2023-05-18T01:35:40.275Z,70.20
2023-05-18T01:35:49.697Z,70.20
2023-05-18T01:35:59.075Z,70.10
2023-05-18T01:36:08.474Z,70.10
2023-05-18T01:36:17.863Z,70.00
2023-05-18T01:36:36.677Z,69.80
2023-05-18T01:36:46.073Z,69.70
2023-05-18T01:36:55.452Z,69.70
2023-05-18T01:37:04.851Z,69.60
2023-05-18T01:37:14.249Z,69.50
2023-05-18T01:37:23.676Z,69.50
2023-05-18T01:37:42.457Z,69.30
2023-05-18T01:37:51.860Z,69.20
2023-05-18T01:38:01.262Z,69.10
2023-05-18T01:38:10.725Z,69.10
2023-05-18T01:38:20.128Z,69.00
2023-05-18T01:38:29.568Z,68.90
2023-05-18T01:38:48.343Z,68.80
2023-05-18T01:38:57.738Z,68.80
2023-05-18T01:39:07.142Z,68.70
2023-05-18T01:39:16.553Z,68.70
2023-05-18T01:39:26.044Z,68.60
2023-05-18T01:39:35.449Z,68.40
2023-05-18T01:39:54.269Z,68.50
2023-05-18T01:40:03.651Z,68.40
2023-05-18T01:40:13.043Z,68.40
2023-05-18T01:40:22.434Z,68.30
2023-05-18T01:40:31.808Z,68.30
2023-05-18T01:40:41.199Z,68.30
2023-05-18T01:40:59.971Z,68.20
2023-05-18T01:41:09.354Z,68.20
2023-05-18T01:41:19.027Z,68.10
2023-05-18T01:41:28.385Z,68.10
2023-05-18T01:41:37.796Z,68.10
2023-05-18T01:41:47.179Z,68.00
2023-05-18T01:42:05.980Z,68.10
2023-05-18T01:42:15.375Z,68.10
2023-05-18T01:42:24.780Z,68.00
2023-05-18T01:42:34.179Z,68.00
2023-05-18T01:42:43.579Z,67.90
2023-05-18T01:42:52.961Z,67.90
2023-05-18T01:43:11.811Z,67.80
2023-05-18T01:43:21.169Z,67.80
2023-05-18T01:43:30.589Z,67.70
2023-05-18T01:43:39.996Z,67.70
2023-05-18T01:43:49.398Z,67.60
2023-05-18T01:43:58.819Z,67.60
2023-05-18T01:44:17.594Z,67.60
2023-05-18T01:44:26.995Z,67.50
2023-05-18T01:44:36.403Z,67.50
2023-05-18T01:44:45.798Z,67.50
2023-05-18T01:44:55.188Z,67.40
2023-05-18T01:45:04.568Z,67.40
2023-05-18T01:45:23.409Z,67.30
2023-05-18T01:45:32.804Z,67.30
2023-05-18T01:45:42.196Z,67.20
2023-05-18T01:45:51.600Z,67.20
2023-05-18T01:46:01.022Z,67.10
2023-05-18T01:46:10.393Z,67.20
2023-05-18T01:46:29.149Z,67.10
2023-05-18T01:46:38.572Z,67.10
2023-05-18T01:46:47.976Z,67.00
2023-05-18T01:46:57.290Z,67.00
2023-05-18T01:47:06.664Z,67.10
2023-05-18T01:47:16.153Z,66.90
2023-05-18T01:47:35.017Z,66.90
2023-05-18T01:47:44.390Z,66.90
2023-05-18T01:47:53.788Z,66.90
2023-05-18T01:48:03.199Z,66.80
2023-05-18T01:48:12.539Z,66.80
2023-05-18T01:48:21.928Z,66.80
2023-05-18T01:48:40.812Z,66.70
2023-05-18T01:48:50.188Z,66.70
2023-05-18T01:48:59.595Z,66.60
2023-05-18T01:49:09.016Z,66.70
2023-05-18T01:49:18.410Z,66.70
2023-05-18T01:49:27.806Z,66.60
2023-05-18T01:49:46.619Z,66.60
2023-05-18T01:49:56.057Z,66.50
2023-05-18T01:50:05.454Z,66.50
2023-05-18T01:50:14.869Z,66.50
2023-05-18T01:50:24.250Z,66.50
2023-05-18T01:50:33.649Z,66.50
2023-05-18T01:50:52.422Z,66.50
2023-05-18T01:51:01.808Z,66.50
2023-05-18T01:51:11.194Z,66.40
2023-05-18T01:51:20.579Z,66.40
2023-05-18T01:51:29.959Z,66.40
2023-05-18T01:51:39.357Z,66.40
2023-05-18T01:51:58.149Z,66.30
2023-05-18T01:52:07.574Z,66.30
2023-05-18T01:52:16.966Z,66.40
2023-05-18T01:52:26.438Z,66.30
2023-05-18T01:52:35.813Z,66.30
2023-05-18T01:52:45.214Z,66.30
2023-05-18T01:53:03.999Z,66.30
2023-05-18T01:53:13.405Z,66.30
2023-05-18T01:53:22.782Z,66.30
2023-05-18T01:53:32.293Z,66.30
2023-05-18T01:53:41.831Z,66.30
2023-05-18T01:53:51.107Z,66.40
2023-05-18T01:54:09.982Z,66.40
2023-05-18T01:54:19.360Z,66.40
2023-05-18T01:54:28.798Z,66.40
2023-05-18T01:54:38.209Z,66.40
2023-05-18T01:54:47.602Z,66.40
2023-05-18T01:54:57.000Z,66.30
2023-05-18T01:55:15.783Z,66.40
2023-05-18T01:55:25.172Z,66.50
2023-05-18T01:55:34.588Z,66.40
2023-05-18T01:55:43.939Z,66.50
2023-05-18T01:55:53.328Z,66.40
2023-05-18T01:56:02.751Z,66.40
2023-05-18T01:56:21.546Z,66.40
2023-05-18T01:56:30.950Z,66.40
2023-05-18T01:56:40.336Z,66.50
2023-05-18T01:56:49.756Z,66.50
2023-05-18T01:56:59.135Z,66.50
2023-05-18T01:57:09.440Z,66.50
2023-05-18T01:57:27.361Z,66.60
2023-05-18T01:57:36.766Z,66.60
2023-05-18T01:57:46.176Z,66.60
2023-05-18T01:57:55.557Z,66.70
2023-05-18T01:58:04.950Z,66.60
2023-05-18T01:58:14.359Z,66.60
2023-05-18T01:58:33.153Z,66.80
2023-05-18T01:58:42.542Z,66.70
2023-05-18T01:58:51.925Z,66.80
2023-05-18T01:59:01.296Z,66.80
2023-05-18T01:59:10.691Z,66.80
2023-05-18T01:59:20.102Z,66.80
2023-05-18T01:59:38.917Z,66.80
2023-05-18T01:59:48.309Z,66.80
2023-05-18T01:59:57.688Z,66.80
2023-05-18T02:00:07.078Z,66.80
2023-05-18T02:00:16.464Z,66.90
2023-05-18T02:00:25.860Z,66.90
2023-05-18T02:00:44.621Z,66.90
2023-05-18T02:00:54.010Z,66.90
2023-05-18T02:01:03.502Z,66.90
2023-05-18T02:01:12.890Z,66.90
2023-05-18T02:01:22.281Z,66.90
2023-05-18T02:01:31.692Z,66.80
2023-05-18T02:01:50.523Z,66.90
2023-05-18T02:02:00.225Z,66.70
2023-05-18T02:02:09.305Z,66.90
2023-05-18T02:02:18.698Z,66.90
2023-05-18T02:02:28.255Z,66.80
2023-05-18T02:02:37.575Z,66.90
2023-05-18T02:02:56.332Z,66.90
2023-05-18T02:03:05.751Z,67.00
2023-05-18T02:03:15.181Z,67.00
2023-05-18T02:03:24.577Z,67.00
2023-05-18T02:03:33.999Z,67.10
2023-05-18T02:03:43.540Z,67.10
2023-05-18T02:04:02.162Z,67.10
2023-05-18T02:04:11.632Z,67.20
2023-05-18T02:04:21.005Z,67.20
2023-05-18T02:04:30.382Z,67.20
2023-05-18T02:04:39.788Z,67.10
2023-05-18T02:04:49.174Z,67.20
2023-05-18T02:05:07.972Z,67.20
2023-05-18T02:05:17.388Z,67.20
2023-05-18T02:05:26.755Z,67.30
2023-05-18T02:05:36.137Z,67.20
2023-05-18T02:05:45.530Z,67.20
2023-05-18T02:05:54.899Z,67.20
2023-05-18T02:06:13.691Z,67.20
2023-05-18T02:06:23.120Z,67.20
2023-05-18T02:06:32.545Z,67.30
2023-05-18T02:06:41.951Z,67.20
2023-05-18T02:06:51.354Z,67.30
2023-05-18T02:07:00.795Z,67.20
2023-05-18T02:07:19.543Z,67.20
2023-05-18T02:07:28.957Z,67.20
2023-05-18T02:07:38.350Z,67.20
2023-05-18T02:07:47.800Z,67.20
2023-05-18T02:07:57.104Z,67.20
2023-05-18T02:08:06.496Z,67.20
2023-05-18T02:08:25.244Z,67.20
2023-05-18T02:08:34.628Z,67.20
2023-05-18T02:08:44.031Z,67.10
2023-05-18T02:08:53.439Z,67.20
2023-05-18T02:09:02.807Z,67.10
2023-05-18T02:09:12.420Z,67.10
2023-05-18T02:09:31.232Z,67.10
2023-05-18T02:09:40.625Z,67.10
2023-05-18T02:09:50.031Z,67.10
2023-05-18T02:09:59.415Z,67.00
2023-05-18T02:10:08.816Z,67.00
2023-05-18T02:10:18.300Z,67.00
2023-05-18T02:10:37.120Z,67.00
2023-05-18T02:10:46.520Z,67.00
2023-05-18T02:10:55.965Z,67.00
2023-05-18T02:11:05.333Z,67.00
2023-05-18T02:11:14.747Z,66.90
2023-05-18T02:11:24.136Z,67.00
2023-05-18T02:11:42.929Z,66.90
2023-05-18T02:11:52.343Z,66.80
2023-05-18T02:12:01.725Z,66.90
2023-05-18T02:12:11.115Z,66.80
2023-05-18T02:12:20.493Z,66.90
2023-05-18T02:12:29.902Z,66.90
2023-05-18T02:12:48.726Z,66.80
2023-05-18T02:12:58.053Z,66.80
2023-05-18T02:13:07.459Z,66.90
2023-05-18T02:13:16.868Z,67.00
2023-05-18T02:13:26.267Z,66.90
2023-05-18T02:13:35.658Z,66.90
2023-05-18T02:13:54.429Z,67.00
2023-05-18T02:14:03.810Z,66.80
2023-05-18T02:14:13.209Z,66.80
2023-05-18T02:14:22.636Z,66.80
2023-05-18T02:14:32.030Z,66.80
2023-05-18T02:14:41.440Z,66.80
2023-05-18T02:15:00.242Z,66.80
2023-05-18T02:15:09.665Z,66.80
2023-05-18T02:15:19.082Z,66.80
2023-05-18T02:15:28.716Z,66.90
2023-05-18T02:15:37.854Z,66.90
2023-05-18T02:15:47.252Z,66.80
2023-05-18T02:16:06.206Z,66.90
2023-05-18T02:16:15.521Z,66.90
2023-05-18T02:16:24.951Z,66.90
2023-05-18T02:16:34.344Z,66.90
2023-05-18T02:16:43.786Z,67.00
2023-05-18T02:16:53.334Z,67.00
2023-05-18T02:17:11.963Z,67.00
2023-05-18T02:17:21.402Z,67.00
2023-05-18T02:17:30.825Z,67.00
2023-05-18T02:17:40.478Z,67.00
2023-05-18T02:17:49.622Z,67.00
2023-05-18T02:17:59.096Z,66.90
2023-05-18T02:18:17.792Z,66.90
2023-05-18T02:18:27.181Z,66.90
2023-05-18T02:18:36.707Z,66.90
2023-05-18T02:18:45.964Z,66.90
2023-05-18T02:18:55.360Z,66.90
2023-05-18T02:19:04.812Z,66.90
2023-05-18T02:19:23.574Z,66.80
2023-05-18T02:19:32.974Z,66.80
2023-05-18T02:19:42.345Z,66.80
2023-05-18T02:19:51.731Z,66.90
2023-05-18T02:20:01.123Z,66.90
2023-05-18T02:20:10.505Z,66.80
2023-05-18T02:20:30.344Z,66.90
2023-05-18T02:20:38.815Z,66.90
2023-05-18T02:20:48.194Z,66.90
2023-05-18T02:20:57.562Z,67.00
2023-05-18T02:21:06.943Z,66.90